Time;durP1;ratioP1;P1;durP2;ratioP2;P2;SDS_P1;SDS_P2;PMS_P1;PMS_P2;Temp;Humidity;BMP_temperature;BMP_pressure;BME280_temperature;BME280_humidity;BME280_pressure;Samples;Min_cycle;Max_cycle;Signal;HPM_P1;HPM_P2
2022/12/07 00:04:35;;;;;;;12.60;11.60;;;;;;;2.17;100.00;99712.47;10482521;28;20044;-72
2022/12/07 00:09:38;;;;;;;12.68;11.57;;;;;;;2.22;100.00;99710.72;10499675;28;20032;-72
2022/12/07 00:14:40;;;;;;;14.05;12.95;;;;;;;2.14;100.00;99703.84;10499223;28;20052;-71
2022/12/07 00:19:42;;;;;;;12.80;11.73;;;;;;;2.24;100.00;99696.00;10481552;28;20055;-72
2022/12/07 00:24:43;;;;;;;13.65;12.50;;;;;;;2.44;100.00;99689.91;10500542;28;20045;-72
2022/12/07 00:29:45;;;;;;;11.98;10.98;;;;;;;2.15;100.00;99685.69;10499124;28;20487;-72
2022/12/07 00:34:46;;;;;;;12.95;11.85;;;;;;;2.18;100.00;99684.81;10499637;28;20055;-73
2022/12/07 00:39:48;;;;;;;12.23;11.20;;;;;;;2.20;100.00;99688.25;10499012;28;20040;-72
2022/12/07 00:44:50;;;;;;;13.00;11.95;;;;;;;2.15;100.00;99688.25;10481302;28;20106;-73
2022/12/07 00:49:52;;;;;;;13.43;12.25;;;;;;;2.29;100.00;99683.03;10499654;28;20094;-73
2022/12/07 00:54:54;;;;;;;13.35;12.05;;;;;;;2.14;100.00;99683.97;10499532;28;20056;-73
2022/12/07 00:59:57;;;;;;;15.43;14.13;;;;;;;2.07;100.00;99679.66;10506115;28;20078;-73
2022/12/07 01:04:59;;;;;;;15.85;14.50;;;;;;;2.23;100.00;99670.97;10507794;28;20055;-73
2022/12/07 01:10:01;;;;;;;15.43;14.05;;;;;;;2.33;100.00;99676.97;10507223;28;20040;-72
2022/12/07 01:15:03;;;;;;;15.50;14.10;;;;;;;2.27;100.00;99666.63;10489711;28;20044;-73
2022/12/07 01:20:06;;;;;;;16.15;14.77;;;;;;;2.18;100.00;99664.06;10489000;28;20040;-73
2022/12/07 01:25:09;;;;;;;17.52;14.35;;;;;;;2.33;100.00;99663.13;10506268;28;20044;-73
2022/12/07 01:30:12;;;;;;;15.73;14.32;;;;;;;2.30;100.00;99666.59;10508848;28;20390;-72
2022/12/07 01:35:13;;;;;;;14.57;13.38;;;;;;;2.36;100.00;99655.34;10507381;28;20052;-72
2022/12/07 01:40:15;;;;;;;13.77;12.57;;;;;;;2.23;100.00;99665.78;10506388;28;20139;-72
2022/12/07 01:45:41;;;;;;;14.63;13.32;;;;;;;2.13;100.00;99661.50;10426950;23;20449;-74
2022/12/07 01:50:46;;;;;;;15.53;14.10;;;;;;;1.96;100.00;99658.94;10455930;28;20055;-73
2022/12/07 01:55:52;;;;;;;12.48;11.48;;;;;;;2.08;100.00;99664.94;10446206;28;20041;-74
2022/12/07 02:00:53;;;;;;;12.48;11.45;;;;;;;1.98;100.00;99670.16;10466774;28;20478;-73
2022/12/07 02:05:56;;;;;;;10.30;9.40;;;;;;;1.95;100.00;99669.34;10463360;28;20052;-73
2022/12/07 02:11:00;;;;;;;11.90;9.73;;;;;;;1.64;100.00;99669.41;10462934;28;20049;-73
2022/12/07 02:16:20;;;;;;;10.68;9.77;;;;;;;1.76;100.00;99663.31;10462828;28;20045;-73
2022/12/07 02:21:43;;;;;;;10.63;9.73;;;;;;;1.79;100.00;99659.88;10466267;28;20059;-73
2022/12/07 02:27:06;;;;;;;9.63;8.85;;;;;;;1.62;100.00;99657.31;10462031;28;20090;-73
2022/12/07 02:32:16;;;;;;;9.63;8.82;;;;;;;1.58;100.00;99653.84;10461966;28;20048;-73
2022/12/07 02:37:59;;;;;;;11.43;10.52;;;;;;;1.49;100.00;99646.94;10445360;28;20284;-72
2022/12/07 02:43:14;;;;;;;10.52;9.73;;;;;;;1.38;100.00;99643.53;10424762;28;20132;-74
2022/12/07 02:48:18;;;;;;;11.52;10.52;;;;;;;1.45;100.00;99639.19;10462474;28;20051;-73
2022/12/07 02:53:37;;;;;;;12.90;11.70;;;;;;;1.37;100.00;99623.66;10443562;28;20056;-73
2022/12/07 02:58:47;;;;;;;12.52;11.52;;;;;;;1.51;100.00;99616.75;10461904;28;20037;-73
2022/12/07 03:04:03;;;;;;;12.77;11.77;;;;;;;1.45;100.00;99621.91;10464490;28;20045;-73
2022/12/07 03:09:29;;;;;;;13.95;12.77;;;;;;;1.51;100.00;99621.06;10443675;28;20047;-73
2022/12/07 03:14:38;;;;;;;13.65;12.60;;;;;;;1.53;100.00;99614.16;10460207;28;20132;-73
2022/12/07 03:19:42;;;;;;;14.52;13.32;;;;;;;1.34;100.00;99608.13;10458063;28;20094;-73
2022/12/07 03:24:52;;;;;;;14.73;13.52;;;;;;;1.42;100.00;99602.97;10444394;28;20044;-73
2022/12/07 03:30:04;;;;;;;15.90;14.57;;;;;;;1.18;100.00;99601.25;10441344;28;20516;-72
2022/12/07 03:35:16;;;;;;;16.10;14.77;;;;;;;1.38;100.00;99596.06;10441608;28;20398;-73
2022/12/07 03:40:52;;;;;;;16.80;15.40;;;;;;;1.25;100.00;99595.22;10459878;28;20040;-73
2022/12/07 03:46:11;;;;;;;15.82;14.52;;;;;;;1.33;100.00;99590.00;10460285;28;20099;-73
2022/12/07 03:51:18;;;;;;;16.35;14.93;;;;;;;1.13;100.00;99584.84;10458669;28;20048;-73
2022/12/07 03:56:21;;;;;;;16.73;15.33;;;;;;;1.12;100.00;99581.41;10459879;28;20497;-73
2022/12/07 04:01:24;;;;;;;16.25;14.85;;;;;;;1.20;100.00;99578.81;10441366;28;20195;-73
2022/12/07 04:06:26;;;;;;;15.55;14.15;;;;;;;1.31;100.00;99577.06;10441786;28;20119;-73
2022/12/07 04:11:27;;;;;;;16.13;14.73;;;;;;;1.23;100.00;99566.72;10458642;28;20045;-73
2022/12/07 04:16:29;;;;;;;15.57;13.98;;;;;;;1.10;100.00;99561.56;10440324;28;20053;-73
2022/12/07 04:21:31;;;;;;;13.60;12.50;;;;;;;1.19;100.00;99541.69;10457661;28;20045;-73
2022/12/07 04:26:32;;;;;;;14.18;12.98;;;;;;;1.32;98.40;99549.44;10457511;28;20094;-73
2022/12/07 04:31:35;;;;;;;13.88;12.57;;;;;;;1.14;99.33;99545.16;10458753;28;20041;-74
2022/12/07 04:36:37;;;;;;;12.80;11.60;;;;;;;1.14;99.10;99542.56;10439818;28;20080;-74
2022/12/07 04:41:39;;;;;;;12.80;11.70;;;;;;;1.07;98.63;99526.19;10456829;28;20460;-74
2022/12/07 04:46:41;;;;;;;11.82;10.63;;;;;;;1.13;97.75;99514.97;10439029;28;20045;-74
2022/12/07 04:51:44;;;;;;;11.45;10.45;;;;;;;1.20;96.90;99506.34;10458920;28;20418;-74
2022/12/07 04:56:46;;;;;;;10.90;9.77;;;;;;;1.23;96.12;99511.47;10456570;28;20458;-74
2022/12/07 05:01:48;;;;;;;10.93;9.93;;;;;;;1.23;96.15;99507.16;10461680;28;20064;-73
2022/12/07 05:06:49;;;;;;;10.98;10.00;;;;;;;1.16;96.97;99499.44;10441484;28;20047;-74
2022/12/07 05:11:51;;;;;;;10.00;9.20;;;;;;;1.16;96.78;99497.69;10442002;28;20060;-74
2022/12/07 05:16:53;;;;;;;11.30;10.10;;;;;;;1.19;95.96;99502.00;10456676;28;20387;-74
2022/12/07 05:21:55;;;;;;;9.90;9.07;;;;;;;1.10;97.29;99500.28;10457003;28;20049;-73
2022/12/07 05:26:56;;;;;;;10.63;9.63;;;;;;;0.93;98.57;99505.53;10438526;28;20041;-73
2022/12/07 05:31:58;;;;;;;9.50;8.38;;;;;;;1.18;96.29;99497.69;10441058;28;20045;-73
2022/12/07 05:37:00;;;;;;;9.65;8.00;;;;;;;1.21;95.93;99498.56;10439527;28;20052;-73
2022/12/07 05:42:13;;;;;;;7.88;7.18;;;;;;;1.24;95.68;99488.19;10440192;28;20049;-73
2022/12/07 05:47:16;;;;;;;8.25;7.50;;;;;;;1.17;96.13;99486.47;10463873;28;20051;-73
2022/12/07 05:52:17;;;;;;;6.97;6.32;;;;;;;1.37;93.78;99473.44;10464509;28;20044;-73
2022/12/07 05:57:19;;;;;;;6.15;5.40;;;;;;;1.47;93.18;99469.13;10465922;28;20049;-73
2022/12/07 06:02:21;;;;;;;6.18;5.38;;;;;;;1.65;92.24;99471.63;10463355;28;20049;-73
2022/12/07 06:07:23;;;;;;;5.88;4.90;;;;;;;1.71;91.50;99470.72;10464252;28;20041;-73
2022/12/07 06:12:33;;;;;;;5.88;5.25;;;;;;;1.75;92.20;99465.53;10445170;28;20045;-73
2022/12/07 06:17:36;;;;;;;5.68;5.13;;;;;;;1.92;91.08;99460.25;10445433;28;20414;-74
2022/12/07 06:22:38;;;;;;;6.63;5.47;;;;;;;1.98;90.12;99447.25;10463095;28;20052;-74
2022/12/07 06:27:39;;;;;;;5.15;4.50;;;;;;;1.99;90.33;99450.69;10462394;28;20041;-74
2022/12/07 06:32:41;;;;;;;6.18;5.57;;;;;;;1.85;92.54;99445.59;10444972;28;20067;-74
2022/12/07 06:37:43;;;;;;;6.05;5.55;;;;;;;1.92;93.45;99447.28;10464272;28;20124;-73
2022/12/07 06:42:45;;;;;;;6.15;5.55;;;;;;;1.81;96.77;99449.06;10463201;28;20119;-74
2022/12/07 06:47:46;;;;;;;6.93;6.32;;;;;;;1.85;98.17;99450.78;10462871;28;20486;-74
2022/12/07 06:52:48;;;;;;;6.78;6.15;;;;;;;1.81;100.00;99454.25;10462510;28;20449;-74
2022/12/07 06:57:50;;;;;;;6.95;6.40;;;;;;;1.77;100.00;99455.13;10460303;28;20398;-73
2022/12/07 07:02:52;;;;;;;7.38;6.78;;;;;;;1.74;100.00;99455.19;10463601;28;20045;-74
2022/12/07 07:07:54;;;;;;;7.68;7.07;;;;;;;1.76;100.00;99461.19;10443551;28;20498;-73
2022/12/07 07:13:15;;;;;;;8.00;7.40;;;;;;;1.79;100.00;99452.56;10447151;28;20048;-74
2022/12/07 07:18:17;;;;;;;7.95;7.25;;;;;;;1.62;100.00;99468.19;10461950;28;20123;-74
2022/12/07 07:23:21;;;;;;;8.68;7.88;;;;;;;1.54;100.00;99465.63;10463612;28;20194;-74
2022/12/07 07:28:22;;;;;;;7.40;6.80;;;;;;;1.54;100.00;99472.53;10461536;28;20124;-73
2022/12/07 07:33:24;;;;;;;8.00;7.30;;;;;;;1.46;100.00;99470.84;10460832;28;20049;-73
2022/12/07 07:38:26;;;;;;;8.23;7.63;;;;;;;1.52;100.00;99478.59;10442251;28;20132;-73
2022/12/07 07:43:29;;;;;;;7.53;6.90;;;;;;;1.63;100.00;99481.13;10487093;22;20480;-73
2022/12/07 07:48:31;;;;;;;8.63;8.00;;;;;;;1.77;100.00;99484.53;10484619;28;20053;-77
2022/12/07 07:53:33;;;;;;;8.80;8.00;;;;;;;1.75;100.00;99482.81;10501515;28;20553;-73
2022/12/07 07:58:35;;;;;;;9.23;8.52;;;;;;;1.84;100.00;99490.53;10503300;28;20059;-75
2022/12/07 08:03:37;;;;;;;9.55;8.88;;;;;;;1.99;100.00;99485.28;10501783;28;20123;-73
2022/12/07 08:08:39;;;;;;;11.02;9.82;;;;;;;2.02;100.00;99482.63;10501889;28;20116;-73
2022/12/07 08:13:41;;;;;;;10.85;10.05;;;;;;;2.19;100.00;99487.72;10503240;28;20079;-73
2022/12/07 08:18:43;;;;;;;11.48;10.68;;;;;;;2.21;100.00;99486.00;10501288;28;20466;-75
2022/12/07 08:23:45;;;;;;;10.55;9.65;;;;;;;2.33;100.00;99471.22;10500900;28;20051;-74
2022/12/07 08:28:47;;;;;;;11.52;10.60;;;;;;;2.39;100.00;99466.84;10500933;28;20466;-74
2022/12/07 08:33:49;;;;;;;11.75;10.85;;;;;;;2.49;100.00;99476.28;10482576;28;20440;-74
2022/12/07 08:38:51;;;;;;;11.07;9.95;;;;;;;2.45;100.00;99476.31;10499536;28;20062;-74
2022/12/07 08:44:12;;;;;;;10.75;9.88;;;;;;;2.53;100.00;99483.16;10499151;28;20414;-74
2022/12/07 08:49:26;;;;;;;10.50;9.55;;;;;;;2.61;100.00;99483.09;10498985;28;20040;-74
2022/12/07 08:54:28;;;;;;;10.35;9.50;;;;;;;2.71;100.00;99487.34;10498797;28;20116;-74
2022/12/07 08:59:30;;;;;;;10.68;9.65;;;;;;;2.74;100.00;99486.44;10498192;28;20037;-74
2022/12/07 09:04:32;;;;;;;9.68;8.88;;;;;;;2.91;100.00;99486.28;10498044;28;20449;-74
2022/12/07 09:09:34;;;;;;;9.73;8.75;;;;;;;3.07;99.44;99490.44;10498196;28;20037;-74
2022/12/07 09:14:35;;;;;;;9.40;8.50;;;;;;;3.08;98.47;99492.16;10499116;28;20044;-74
2022/12/07 09:19:38;;;;;;;8.00;7.40;;;;;;;3.08;98.92;99491.31;10503257;28;20052;-73
2022/12/07 09:24:39;;;;;;;8.07;7.43;;;;;;;3.28;96.85;99490.22;10506614;28;20486;-73
2022/12/07 09:29:41;;;;;;;8.18;7.30;;;;;;;3.45;95.17;99490.06;10506045;28;20064;-73
2022/12/07 09:34:43;;;;;;;8.73;7.35;;;;;;;3.45;94.67;99499.56;10506374;28;20097;-74
2022/12/07 09:39:45;;;;;;;8.80;6.97;;;;;;;3.44;93.31;99500.44;10505429;28;20106;-74
2022/12/07 09:44:50;;;;;;;7.95;7.25;;;;;;;3.44;94.67;99496.09;10505508;28;20036;-75
2022/12/07 09:49:57;;;;;;;7.18;6.47;;;;;;;3.52;92.65;99486.47;10488289;28;20037;-73
2022/12/07 09:54:59;;;;;;;;;;;;;;;3.67;92.05;99495.81;10506254;28;20055;-73
2022/12/07 10:00:07;;;;;;;16.02;13.65;;;;;;;3.74;91.97;99483.63;10491986;28;19920;-74
2022/12/07 10:05:13;;;;;;;;;;;;;;;3.73;91.32;99476.72;10494373;28;20077;-72
2022/12/07 10:10:29;;;;;;;8.88;8.05;;;;;;;3.76;93.01;99458.44;10489378;28;19955;-74
2022/12/07 10:15:46;;;;;;;21.55;18.08;;;;;;;3.84;90.50;99459.22;10479003;28;20080;-74
2022/12/07 10:20:48;;;;;;;27.77;19.77;;;;;;;3.99;91.18;99463.34;10451972;28;20036;-74
2022/12/07 10:25:54;;;;;;;39.97;24.77;;;;;;;4.14;90.86;99457.91;10470980;28;20045;-73
2022/12/07 10:30:59;;;;;;;13.57;12.18;;;;;;;4.26;89.08;99462.94;10461233;28;20041;-74
2022/12/07 10:36:18;;;;;;;9.00;7.10;;;;;;;4.16;90.32;99458.78;10484374;28;20048;-74
2022/12/07 10:41:20;;;;;;;12.60;8.27;;;;;;;4.21;90.00;99458.72;10486196;28;20102;-75
2022/12/07 10:46:40;;;;;;;22.38;18.63;;;;;;;4.25;90.62;99449.94;10485030;28;20048;-74
2022/12/07 10:51:51;;;;;;;9.80;8.90;;;;;;;4.25;91.31;99447.34;10502201;28;20104;-73
2022/12/07 10:57:41;;;;;;;12.13;11.05;;;;;;;4.29;91.99;99446.41;10502006;28;20044;-75
2022/12/07 11:03:31;;;;;;;21.83;16.45;;;;;;;4.29;92.18;99436.88;10334554;28;20050;-73
2022/12/07 11:09:16;;;;;;;13.45;8.57;;;;;;;4.40;91.70;99428.91;10330769;28;20062;-73
2022/12/07 11:14:40;;;;;;;8.98;7.72;;;;;;;4.57;89.69;99423.41;10333512;28;20504;-73
2022/12/07 11:20:04;;;;;;;7.45;6.30;;;;;;;4.42;90.39;99423.66;10317454;28;20093;-74
2022/12/07 11:25:31;;;;;;;7.20;6.10;;;;;;;4.33;91.85;99426.41;10333459;28;20075;-74
2022/12/07 11:31:09;;;;;;;8.65;7.85;;;;;;;4.24;92.41;99430.88;10333112;28;20060;-74
2022/12/07 11:36:31;;;;;;;11.30;10.13;;;;;;;3.82;99.73;99429.78;10346499;28;20060;-73
2022/12/07 11:41:41;;;;;;;11.85;8.73;;;;;;;3.64;100.00;99427.44;10479678;28;20045;-74
2022/12/07 11:47:01;;;;;;;7.95;6.75;;;;;;;3.60;100.00;99417.97;10483435;28;20553;-75
2022/12/07 11:52:13;;;;;;;10.90;9.80;;;;;;;3.55;100.00;99412.84;10500429;28;20067;-74
2022/12/07 11:57:42;;;;;;;9.23;8.23;;;;;;;3.67;100.00;99415.25;10501701;28;20049;-74
2022/12/07 12:02:51;;;;;;;11.68;8.35;;;;;;;3.88;99.75;99413.22;10413546;28;20057;-75
2022/12/07 12:08:04;;;;;;;8.50;6.85;;;;;;;3.97;99.03;99406.16;10386365;28;20503;-75
2022/12/07 12:13:32;;;;;;;8.38;7.13;;;;;;;4.16;96.46;99398.94;10397488;28;20054;-74
2022/12/07 12:19:22;;;;;;;6.38;5.78;;;;;;;4.33;94.28;99398.66;10359797;28;20452;-73
2022/12/07 12:24:27;;;;;;;7.15;6.45;;;;;;;4.28;95.26;99398.72;10406664;28;20588;-74
2022/12/07 12:29:41;;;;;;;7.03;5.43;;;;;;;4.19;95.39;99416.22;10378783;28;20169;-74
2022/12/07 12:35:35;;;;;;;6.10;4.13;;;;;;;3.38;100.00;99418.25;10374538;28;20045;-73
2022/12/07 12:40:39;;;;;;;2.40;1.58;;;;;;;3.00;100.00;99411.75;10330817;28;20071;-73
2022/12/07 12:45:49;;;;;;;2.95;1.52;;;;;;;2.94;100.00;99410.97;10334930;28;20054;-74
2022/12/07 12:51:29;;;;;;;3.15;2.00;;;;;;;3.07;100.00;99416.91;10356855;28;20133;-75
2022/12/07 12:56:42;;;;;;;4.65;3.30;;;;;;;2.82;100.00;99421.47;10379859;28;20058;-73
2022/12/07 13:01:46;;;;;;;4.78;4.32;;;;;;;2.65;100.00;99406.06;10379101;28;20093;-73
2022/12/07 13:06:49;;;;;;;22.92;13.43;;;;;;;2.66;100.00;99407.81;10378757;28;20222;-75
2022/12/07 13:11:59;;;;;;;7.40;6.80;;;;;;;2.66;100.00;99413.00;10439352;28;20095;-73
2022/12/07 13:17:01;;;;;;;5.50;5.00;;;;;;;2.55;100.00;99394.06;10465423;28;20087;-73
2022/12/07 13:22:03;;;;;;;5.57;4.60;;;;;;;2.50;100.00;99396.72;10465481;28;20044;-73
2022/12/07 13:27:09;;;;;;;7.55;5.47;;;;;;;2.46;100.00;99405.38;10458688;28;20055;-74
2022/12/07 13:32:24;;;;;;;5.88;5.35;;;;;;;2.24;100.00;99397.78;10491316;28;20044;-75
2022/12/07 13:37:33;;;;;;;9.93;3.58;;;;;;;2.34;100.00;99398.56;10470958;28;20128;-73
2022/12/07 13:42:39;;;;;;;10.88;9.90;;;;;;;2.35;100.00;99405.50;10478579;23;20072;-71
2022/12/07 13:47:48;;;;;;;7.03;6.43;;;;;;;2.24;100.00;99404.72;10437001;28;20095;-71
2022/12/07 13:52:55;;;;;;;10.63;9.13;;;;;;;2.51;100.00;99396.69;10405343;28;20045;-70
2022/12/07 13:57:57;;;;;;;7.15;6.55;;;;;;;2.62;100.00;99403.53;10422945;28;20064;-70
2022/12/07 14:03:13;;;;;;;7.07;5.22;;;;;;;2.73;100.00;99404.25;10423302;28;20103;-70
2022/12/07 14:08:15;;;;;;;5.60;5.03;;;;;;;2.91;100.00;99401.47;10391078;28;20073;-70
2022/12/07 14:13:40;;;;;;;8.63;7.72;;;;;;;2.83;100.00;99397.22;10373781;28;20674;-71
2022/12/07 14:18:43;;;;;;;8.88;6.45;;;;;;;2.89;100.00;99394.59;10423016;28;20044;-71
2022/12/07 14:24:01;;;;;;;7.13;4.97;;;;;;;3.20;100.00;99398.56;10398911;28;20041;-70
2022/12/07 14:29:22;;;;;;;9.82;4.43;;;;;;;3.22;100.00;99390.72;10383059;28;20093;-71
2022/12/07 14:34:25;;;;;;;6.03;4.65;;;;;;;3.31;100.00;99390.63;10380811;28;20049;-71
2022/12/07 14:39:29;;;;;;;11.23;5.05;;;;;;;3.37;100.00;99376.72;10380981;28;20057;-71
2022/12/07 14:44:31;;;;;;;5.47;4.65;;;;;;;3.36;100.00;99373.22;10381407;28;20056;-70
2022/12/07 14:49:37;;;;;;;8.52;3.60;;;;;;;3.40;100.00;99376.66;10380279;28;20029;-70
2022/12/07 14:54:39;;;;;;;5.32;3.13;;;;;;;3.47;100.00;99380.88;10379759;28;20060;-70
2022/12/07 14:59:40;;;;;;;4.65;2.50;;;;;;;3.38;100.00;99379.28;10379592;28;20042;-70
2022/12/07 15:04:46;;;;;;;5.07;2.65;;;;;;;3.34;100.00;99381.94;10362594;28;20096;-70
2022/12/07 15:09:48;;;;;;;4.00;2.00;;;;;;;3.47;98.81;99386.09;10380189;28;20069;-71
2022/12/07 15:14:50;;;;;;;6.47;2.47;;;;;;;3.26;99.78;99393.28;10378814;28;20488;-70
2022/12/07 15:19:52;;;;;;;4.15;2.47;;;;;;;3.18;100.00;99395.09;10379546;28;20042;-72
2022/12/07 15:24:53;;;;;;;5.18;1.80;;;;;;;3.33;97.23;99401.00;10379236;28;20046;-70
2022/12/07 15:29:55;;;;;;;2.72;1.80;;;;;;;3.33;98.23;99394.06;10362279;28;20412;-70
2022/12/07 15:34:57;;;;;;;3.63;1.73;;;;;;;3.14;98.93;99396.00;10362198;28;20403;-69
2022/12/07 15:40:02;;;;;;;2.65;1.60;;;;;;;3.37;94.16;99390.56;10379029;28;20526;-70
2022/12/07 15:45:09;;;;;;;12.10;10.13;;;;;;;3.50;92.21;99399.06;10360979;28;20053;-70
2022/12/07 15:50:14;;;;;;;57.50;33.60;;;;;;;3.31;93.74;99388.00;10378282;28;20553;-70
2022/12/07 15:55:16;;;;;;;3.58;3.13;;;;;;;3.15;95.04;99391.69;10360497;28;20100;-70
2022/12/07 16:00:18;;;;;;;3.25;2.17;;;;;;;2.96;97.45;99391.88;10378789;28;20065;-70
2022/12/07 16:05:20;;;;;;;3.33;2.67;;;;;;;2.93;99.35;99394.53;10360568;28;20049;-70
2022/12/07 16:10:22;;;;;;;6.18;3.20;;;;;;;2.68;100.00;99396.53;10359263;28;20080;-69
2022/12/07 16:15:26;;;;;;;6.63;5.72;;;;;;;2.78;100.00;99400.72;10377509;28;20128;-70
2022/12/07 16:20:35;;;;;;;9.00;5.93;;;;;;;2.75;100.00;99398.19;10361476;28;20046;-72
2022/12/07 16:25:38;;;;;;;7.28;5.38;;;;;;;3.18;95.35;99400.28;10379518;28;20042;-70
2022/12/07 16:30:48;;;;;;;4.72;4.20;;;;;;;3.23;93.96;99401.13;10378793;28;20161;-71
2022/12/07 16:35:49;;;;;;;4.55;2.50;;;;;;;2.98;94.87;99400.53;10377607;28;20050;-70
2022/12/07 16:40:51;;;;;;;7.45;3.10;;;;;;;2.89;96.03;99402.38;10378082;28;20077;-70
2022/12/07 16:45:53;;;;;;;3.67;1.75;;;;;;;3.00;94.69;99398.78;10359357;28;20046;-68
2022/12/07 16:50:55;;;;;;;3.70;3.25;;;;;;;3.20;92.78;99395.94;10377835;28;20061;-69
2022/12/07 16:55:57;;;;;;;4.07;1.95;;;;;;;2.85;94.55;99401.53;10360554;28;20117;-68
2022/12/07 17:00:59;;;;;;;12.45;8.98;;;;;;;2.92;94.73;99408.41;10378579;28;20049;-69
2022/12/07 17:06:01;;;;;;;4.70;3.45;;;;;;;2.96;94.08;99402.28;10377484;28;20562;-68
2022/12/07 17:11:10;;;;;;;4.38;2.55;;;;;;;2.78;96.28;99395.53;10360798;28;20084;-68
2022/12/07 17:16:11;;;;;;;3.97;2.00;;;;;;;3.13;94.17;99396.03;10359707;28;20068;-68
2022/12/07 17:21:13;;;;;;;4.65;2.30;;;;;;;3.14;94.02;99392.56;10376689;28;20042;-69
2022/12/07 17:26:20;;;;;;;2.90;2.40;;;;;;;3.02;95.03;99404.81;10375749;28;20042;-69
2022/12/07 17:31:32;;;;;;;2.72;2.13;;;;;;;3.05;95.20;99398.72;10359529;28;20042;-70
2022/12/07 17:36:34;;;;;;;5.80;3.22;;;;;;;2.94;97.11;99398.00;10376393;28;20046;-71
2022/12/07 17:46:58;;;;;;;4.93;2.83;;;;;;;2.88;97.08;99398.03;10382587;28;20500;-69
2022/12/07 17:57:20;;;;;;;4.07;2.78;;;;;;;3.00;94.97;99403.97;10381929;28;20537;-69
2022/12/07 18:02:22;;;;;;;4.88;3.15;;;;;;;2.98;95.82;99403.13;10382889;28;20034;-69
2022/12/07 18:07:24;;;;;;;4.32;3.13;;;;;;;2.90;96.68;99404.09;10382985;28;20507;-69
2022/12/07 18:12:26;;;;;;;4.55;2.53;;;;;;;2.76;97.64;99410.28;10381630;28;20042;-69
2022/12/07 18:17:28;;;;;;;9.80;4.15;;;;;;;2.94;95.81;99410.97;10364062;28;20104;-68
2022/12/07 18:22:30;;;;;;;3.63;2.60;;;;;;;3.04;94.17;99413.44;10364696;28;20037;-69
2022/12/07 18:27:32;;;;;;;2.88;2.20;;;;;;;2.73;95.96;99407.72;10382597;28;20046;-69
2022/12/07 18:32:34;;;;;;;3.58;2.33;;;;;;;2.64;95.63;99406.94;10382753;28;20038;-68
2022/12/07 18:37:35;;;;;;;3.08;1.75;;;;;;;2.63;94.93;99410.44;10363721;28;20053;-69
2022/12/07 18:42:37;;;;;;;6.18;3.40;;;;;;;2.61;93.01;99410.47;10380605;28;20421;-69
2022/12/07 18:47:39;;;;;;;7.00;4.80;;;;;;;2.55;93.36;99405.31;10363036;28;20049;-69
2022/12/07 18:52:41;;;;;;;5.15;2.65;;;;;;;2.44;93.83;99410.59;10379994;28;20460;-68
2022/12/07 18:57:44;;;;;;;5.22;1.70;;;;;;;2.39;94.32;99411.50;10380363;28;20053;-69
2022/12/07 19:02:46;;;;;;;3.92;1.77;;;;;;;2.32;94.74;99413.28;10380039;28;20108;-70
2022/12/07 19:07:50;;;;;;;3.55;2.00;;;;;;;2.11;97.00;99403.94;10379752;28;20046;-69
2022/12/07 19:12:52;;;;;;;7.43;3.00;;;;;;;2.02;98.89;99407.47;10361712;28;20050;-69
2022/12/07 19:17:54;;;;;;;4.20;3.03;;;;;;;2.12;99.08;99410.00;10379209;28;20041;-69
2022/12/07 19:22:56;;;;;;;5.47;2.92;;;;;;;2.14;98.54;99397.88;10378931;28;20555;-70
2022/12/07 19:27:58;;;;;;;3.60;2.88;;;;;;;2.24;98.48;99397.78;10379055;28;20049;-69
2022/12/07 19:33:00;;;;;;;4.57;3.33;;;;;;;2.31;97.79;99396.03;10378391;28;20042;-69
2022/12/07 19:38:01;;;;;;;4.43;4.03;;;;;;;2.35;97.79;99399.44;10377381;28;20042;-69
2022/12/07 19:43:03;;;;;;;4.18;3.30;;;;;;;2.35;97.62;99395.13;10392897;22;20446;-75
2022/12/07 19:48:05;;;;;;;7.25;3.60;;;;;;;2.39;97.73;99398.53;10426822;28;20063;-74
2022/12/07 19:53:06;;;;;;;7.90;5.10;;;;;;;2.44;97.30;99394.19;10458204;28;20036;-75
2022/12/07 19:58:08;;;;;;;5.35;3.00;;;;;;;2.63;95.32;99397.44;10458186;28;20037;-75
2022/12/07 20:03:09;;;;;;;9.93;3.28;;;;;;;2.50;96.60;99391.53;10457455;28;20041;-75
2022/12/07 20:08:11;;;;;;;4.43;3.28;;;;;;;2.51;96.70;99399.28;10458412;28;20107;-74
2022/12/07 20:13:29;;;;;;;5.97;3.63;;;;;;;2.50;96.60;99382.00;10457473;28;20045;-74
2022/12/07 20:18:32;;;;;;;3.80;2.85;;;;;;;2.55;96.59;99389.75;10457215;28;20115;-75
2022/12/07 20:23:34;;;;;;;3.88;3.33;;;;;;;2.53;96.00;99381.97;10457782;28;20056;-75
2022/12/07 20:28:36;;;;;;;3.88;2.78;;;;;;;2.61;95.50;99384.50;10457119;28;20087;-75
2022/12/07 20:33:38;;;;;;;4.15;2.97;;;;;;;2.43;95.99;99382.06;10458986;28;20405;-75
2022/12/07 20:38:40;;;;;;;4.72;2.78;;;;;;;2.65;94.33;99385.31;10439868;28;20060;-76
2022/12/07 20:43:42;;;;;;;4.35;3.22;;;;;;;2.55;94.85;99381.09;10457779;28;20063;-74
2022/12/07 20:48:44;;;;;;;6.03;3.28;;;;;;;2.51;95.49;99375.06;10457971;28;20053;-75
2022/12/07 20:53:45;;;;;;;8.30;2.85;;;;;;;2.42;95.21;99375.16;10457400;28;20049;-74
2022/12/07 20:58:48;;;;;;;4.97;3.22;;;;;;;2.40;95.67;99379.53;10456506;28;20498;-75
2022/12/07 21:03:54;;;;;;;4.07;2.90;;;;;;;2.19;96.95;99371.03;10439062;28;20045;-75
2022/12/07 21:08:58;;;;;;;7.50;3.63;;;;;;;2.16;97.68;99377.97;10457567;28;20040;-75
2022/12/07 21:14:00;;;;;;;6.35;3.70;;;;;;;2.14;97.58;99383.19;10458673;28;20041;-75
2022/12/07 21:19:03;;;;;;;4.85;3.42;;;;;;;2.15;97.47;99378.84;10465378;28;20045;-75
2022/12/07 21:24:07;;;;;;;4.57;3.42;;;;;;;2.37;95.35;99383.00;10446359;28;20056;-75
2022/12/07 21:29:08;;;;;;;5.55;3.58;;;;;;;2.29;95.93;99377.00;10464534;28;20425;-74
2022/12/07 21:34:10;;;;;;;5.28;4.28;;;;;;;2.22;96.18;99378.81;10464020;28;20087;-74
2022/12/07 21:39:12;;;;;;;4.72;3.42;;;;;;;2.23;95.79;99375.34;10463919;28;20140;-74
2022/12/07 21:44:13;;;;;;;3.92;3.22;;;;;;;2.34;95.27;99374.38;10463607;28;20044;-75
2022/12/07 21:49:16;;;;;;;6.60;3.13;;;;;;;2.22;95.72;99378.81;10464102;28;20107;-75
2022/12/07 21:54:17;;;;;;;5.72;2.90;;;;;;;2.27;95.77;99364.06;10463383;28;20550;-75
2022/12/07 21:59:26;;;;;;;4.03;3.17;;;;;;;2.30;94.81;99365.75;10462824;28;20470;-75
2022/12/07 22:04:28;;;;;;;5.95;4.18;;;;;;;2.41;94.18;99370.84;10463079;28;20041;-75
2022/12/07 22:09:29;;;;;;;6.20;3.83;;;;;;;2.19;96.34;99363.25;10463127;28;20044;-75
2022/12/07 22:19:51;;;;;;;6.93;3.72;;;;;;;2.50;94.36;99374.22;10445253;28;20037;-74
2022/12/07 22:24:53;;;;;;;4.93;3.70;;;;;;;2.58;93.59;99375.88;10445869;28;20051;-75
2022/12/07 22:29:54;;;;;;;6.50;3.67;;;;;;;2.56;93.46;99375.03;10463002;28;20055;-76
2022/12/07 22:34:56;;;;;;;5.22;4.07;;;;;;;2.55;93.37;99373.31;10463399;28;20049;-75
2022/12/07 22:39:58;;;;;;;7.28;4.03;;;;;;;2.51;93.73;99362.97;10462730;28;20037;-76
2022/12/07 22:44:59;;;;;;;5.60;3.03;;;;;;;2.56;94.40;99365.50;10462770;28;20052;-74
2022/12/07 22:50:04;;;;;;;4.13;2.80;;;;;;;2.65;93.23;99354.16;10461763;28;20407;-75
2022/12/07 22:55:06;;;;;;;7.95;3.55;;;;;;;2.69;92.67;99356.72;10443428;28;20060;-75
2022/12/07 23:00:09;;;;;;;6.25;3.85;;;;;;;2.66;93.19;99354.19;10461463;28;20076;-75
2022/12/07 23:05:11;;;;;;;5.25;2.92;;;;;;;2.66;92.72;99350.72;10461141;28;20376;-75
2022/12/07 23:10:13;;;;;;;5.78;2.90;;;;;;;2.65;92.26;99341.19;10460819;28;20096;-75
2022/12/07 23:15:15;;;;;;;3.80;3.05;;;;;;;2.73;91.23;99347.16;10460579;28;20045;-75
2022/12/07 23:20:17;;;;;;;3.72;2.97;;;;;;;2.66;92.04;99340.34;10444285;28;20336;-76
2022/12/07 23:25:19;;;;;;;3.63;2.70;;;;;;;2.62;91.65;99341.25;10442357;28;20103;-75
2022/12/07 23:30:20;;;;;;;5.68;3.83;;;;;;;2.62;91.46;99338.66;10459802;28;20037;-75
2022/12/07 23:35:22;;;;;;;4.78;3.30;;;;;;;2.66;90.75;99337.75;10459264;28;20510;-75
2022/12/07 23:40:24;;;;;;;7.75;3.22;;;;;;;2.63;91.17;99340.38;10441487;28;20091;-75
2022/12/07 23:45:25;;;;;;;5.47;3.35;;;;;;;2.67;90.79;99334.28;10458878;28;20044;-76
2022/12/07 23:50:27;;;;;;;5.03;3.50;;;;;;;2.64;91.32;99331.69;10459141;28;20498;-76
2022/12/07 23:55:29;;;;;;;4.50;3.13;;;;;;;2.45;92.59;99318.94;10459431;28;20094;-75
